createdAt,value
2018-04-22T00:06:23.000Z,22.6
2018-04-22T00:16:23.000Z,22.6
2018-04-22T00:26:24.000Z,22.6
2018-04-22T00:36:23.000Z,22.1
2018-04-22T00:46:23.000Z,21.6
2018-04-22T00:56:23.000Z,21.4
2018-04-22T01:06:23.000Z,21.9
2018-04-22T01:16:23.000Z,21.6
2018-04-22T01:26:23.000Z,21.8
2018-04-22T01:36:23.000Z,21.6
2018-04-22T01:46:23.000Z,21.6
2018-04-22T01:56:23.000Z,21.3
2018-04-22T02:06:23.000Z,21.2
2018-04-22T02:16:23.000Z,21.1
2018-04-22T02:26:23.000Z,21.1
2018-04-22T02:36:23.000Z,21
2018-04-22T02:46:23.000Z,21.1
2018-04-22T02:56:23.000Z,21
2018-04-22T03:06:23.000Z,20.8
2018-04-22T03:16:23.000Z,20.7
2018-04-22T03:26:23.000Z,20.8
2018-04-22T03:36:23.000Z,20.8
2018-04-22T03:46:23.000Z,20.8
2018-04-22T03:56:23.000Z,20.8
2018-04-22T04:06:23.000Z,20.7
2018-04-22T04:16:23.000Z,20.7
2018-04-22T04:26:23.000Z,20.9
2018-04-22T04:36:23.000Z,20.7
2018-04-22T04:46:23.000Z,20.7
2018-04-22T04:56:23.000Z,20.7
2018-04-22T05:06:23.000Z,20.6
2018-04-22T05:16:23.000Z,20.5
2018-04-22T05:26:23.000Z,20.5
2018-04-22T05:36:23.000Z,20.5
2018-04-22T05:46:23.000Z,20.5
2018-04-22T05:56:24.000Z,20.6
2018-04-22T06:06:24.000Z,20.7
2018-04-22T06:16:24.000Z,20.7
2018-04-22T06:26:24.000Z,20.7
2018-04-22T06:36:24.000Z,20.8
2018-04-22T06:46:24.000Z,20.9
2018-04-22T06:56:24.000Z,21
2018-04-22T07:06:24.000Z,21.1
2018-04-22T07:16:24.000Z,21.2
2018-04-22T07:26:24.000Z,21.2
2018-04-22T07:36:24.000Z,21.3
2018-04-22T07:46:24.000Z,21.4
2018-04-22T07:56:24.000Z,21.5
2018-04-22T08:06:24.000Z,21.7
2018-04-22T08:16:24.000Z,21.9
2018-04-22T08:26:24.000Z,22.2
2018-04-22T08:36:24.000Z,22.2
2018-04-22T08:46:24.000Z,22.3
2018-04-22T08:56:24.000Z,22.4
2018-04-22T09:06:24.000Z,22.4
2018-04-22T09:16:24.000Z,22.3
2018-04-22T09:26:24.000Z,22.3
2018-04-22T09:36:24.000Z,22.4
2018-04-22T09:46:24.000Z,22.5
2018-04-22T09:56:24.000Z,22.6
2018-04-22T10:06:24.000Z,22.6
2018-04-22T10:16:24.000Z,22.8
2018-04-22T10:26:25.000Z,22.6
2018-04-22T10:36:24.000Z,22.7
2018-04-22T10:46:24.000Z,22.6
2018-04-22T10:56:25.000Z,22.9
2018-04-22T11:06:25.000Z,23
2018-04-22T11:16:24.000Z,22.9
2018-04-22T11:26:24.000Z,23
2018-04-22T11:36:25.000Z,22.9
2018-04-22T11:46:24.000Z,23
2018-04-22T11:56:24.000Z,23
2018-04-22T12:06:24.000Z,23.1
2018-04-22T12:16:24.000Z,23.1
2018-04-22T12:26:24.000Z,23.2
2018-04-22T12:36:26.000Z,23.2
2018-04-22T12:46:25.000Z,23.2
2018-04-22T12:56:25.000Z,23.1
2018-04-22T13:06:25.000Z,23.2
2018-04-22T13:16:25.000Z,23.3
2018-04-22T13:26:25.000Z,23.3
2018-04-22T13:36:25.000Z,23.3
2018-04-22T13:46:25.000Z,23.3
2018-04-22T13:56:25.000Z,23.3
2018-04-22T14:06:25.000Z,23.4
2018-04-22T14:16:25.000Z,23.4
2018-04-22T14:26:25.000Z,23.4
2018-04-22T14:36:25.000Z,23.4
2018-04-22T14:46:25.000Z,23.4
2018-04-22T14:56:25.000Z,23.5
2018-04-22T15:06:25.000Z,23.4
2018-04-22T15:16:25.000Z,23.5
2018-04-22T15:26:25.000Z,23.5
2018-04-22T15:36:25.000Z,23.5
2018-04-22T15:46:26.000Z,23.5
2018-04-22T15:56:25.000Z,23.3
2018-04-22T16:06:25.000Z,23.5
2018-04-22T16:16:25.000Z,23.5
2018-04-22T16:26:25.000Z,23.5
2018-04-22T16:36:25.000Z,23.5
2018-04-22T16:46:25.000Z,23.5
2018-04-22T16:56:27.000Z,23.5
2018-04-22T17:06:25.000Z,23.5
2018-04-22T17:16:25.000Z,23.6
2018-04-22T17:26:25.000Z,23.5
2018-04-22T17:46:29.000Z,23.5
2018-04-22T17:56:25.000Z,23.4
2018-04-22T18:06:25.000Z,23.4
2018-04-22T18:16:25.000Z,23.4
2018-04-22T18:26:25.000Z,23.5
2018-04-22T18:36:25.000Z,23.6
2018-04-22T18:46:25.000Z,23.6
2018-04-22T18:56:25.000Z,23.5
2018-04-22T19:06:25.000Z,23.7
2018-04-22T19:16:25.000Z,23.5
2018-04-22T19:26:26.000Z,23.5
2018-04-22T19:36:25.000Z,23.4
2018-04-22T19:46:26.000Z,23.4
2018-04-22T19:56:26.000Z,23.4
2018-04-22T20:16:26.000Z,23.5
2018-04-22T20:26:26.000Z,23.4
2018-04-22T20:36:26.000Z,23.2
2018-04-22T20:56:26.000Z,23.4
2018-04-22T21:06:26.000Z,23.3
2018-04-22T21:16:26.000Z,23.2
2018-04-22T21:26:26.000Z,23.2
2018-04-22T21:36:26.000Z,22.9
2018-04-22T21:46:26.000Z,22.9
2018-04-22T21:56:26.000Z,22.8
2018-04-22T22:06:27.000Z,22.8
2018-04-22T22:16:26.000Z,22.7
2018-04-22T22:26:26.000Z,22.6
2018-04-22T22:36:26.000Z,22.6
2018-04-22T22:56:27.000Z,22.5
2018-04-22T23:06:26.000Z,22.5
2018-04-22T23:16:26.000Z,22.5
2018-04-22T23:26:26.000Z,22.5
2018-04-22T23:36:26.000Z,22.6
2018-04-22T23:46:26.000Z,22.5
2018-04-22T23:56:26.000Z,22.4
